Arvidsjaur, Sweden

2:24 PM CEST on August 24, 2016 (GMT +0200)
FRAMNÄS | | Change Station

Elev -10000 ft 65.58 °N, 19.30 °E | Updated 3 minutes ago

Overcast
Overcast
81.7 °F
Feels Like 87 °F
N
1.9
Wind Variable Wind from SSE
Gusts 4.3 mph

Today
High -- | Low -- °F
--% Chance of Precip.
Yesterday
High -- | Low -- °F
Precip. -- in
Pressure 30.21 in
Visibility 6.2 miles
Clouds Overcast 4100 ft
Heat Index 87 °F
Dew Point 72 °F
Humidity 73%
Rainfall Not available.
Snow Depth Not available.
4:54 AM 8:33 PM
Waning Gibbous, 57% visible
METAR ESNX 241220Z AUTO 14006KT 9999NDV OVC041/// 14/06 Q1023
Pressure 30.21 in
Visibility 6.2 miles
Clouds Overcast 4100 ft
Heat Index 87 °F
Dew Point 72 °F
Humidity 73%
Rainfall Not available.
Snow Depth Not available.
4:54 AM 8:33 PM
Waning Gibbous, 57% visible
METAR ESNX 241220Z AUTO 14006KT 9999NDV OVC041/// 14/06 Q1023

10-Day Weather Forecast

×

Almanac

Astronomy

Aug. 24, 2016 Rise Set
Actual Time
Civil Twilight
Nautical Twilight
Astronomical Twilight
Moon
Length of Visible Light
Length of Day
Tomorrow will be .
, % of the Moon is Illuminated

Today's Extremes

Country Highs Country Lows

Community

WunderPhotos

Upload Photos

1,934,579 photos uploaded!

WunderBlog® & News

Nearby

Air Quality

  Air Quality AQ Index Pollutant
Not available.

Snow Depth

Station Depth Elevation

Earthquake Activity

City Distance Mag. Time & Date
Minimum magnitude displayed is 2.5.

Coastal Water Temperatures

Place Temperature

Stations

Nearby Weather Stations

Station Location Temp. Windchill Dew Point Humidity Wind Precip. Elev Updated Type